Time;durP1;ratioP1;P1;durP2;ratioP2;P2;SDS_P1;SDS_P2;PMS_P1;PMS_P2;Temp;Humidity;BMP_temperature;BMP_pressure;BME280_temperature;BME280_humidity;BME280_pressure;Samples;Min_cycle;Max_cycle;Signal;HPM_P1;HPM_P2
2023/12/20 00:01:13;;;;;;;8.30;7.00;;;;;;;8.13;100.00;99725.69;87280;278;135740;-78
2023/12/20 00:03:15;;;;;;;7.50;6.70;;;;;;;8.27;99.54;99716.33;87472;275;22557;-76
2023/12/20 00:05:17;;;;;;;7.60;6.80;;;;;;;8.33;99.14;99715.77;87370;270;135534;-76
2023/12/20 00:07:19;;;;;;;7.70;6.90;;;;;;;8.41;98.08;99711.25;87449;270;22570;-76
2023/12/20 00:09:22;;;;;;;7.90;6.90;;;;;;;8.49;97.92;99706.39;87293;278;135817;-73
2023/12/20 00:11:24;;;;;;;7.60;6.90;;;;;;;8.54;96.98;99699.98;87291;270;24726;-78
2023/12/20 00:13:26;;;;;;;6.40;5.70;;;;;;;8.55;96.62;99696.60;87306;271;135891;-75
2023/12/20 00:15:27;;;;;;;6.90;6.20;;;;;;;8.61;95.95;99694.00;87391;266;24668;-77
2023/12/20 00:17:30;;;;;;;6.80;6.10;;;;;;;8.67;95.52;99699.53;87262;269;135332;-73
2023/12/20 00:19:32;;;;;;;9.70;6.70;;;;;;;8.72;94.60;99696.25;87268;268;23079;-76
2023/12/20 00:21:34;;;;;;;8.30;6.10;;;;;;;8.70;94.53;99694.20;87342;274;141328;-79
2023/12/20 00:23:36;;;;;;;7.50;6.50;;;;;;;8.74;94.36;99696.77;87378;270;25211;-74
2023/12/20 00:25:38;;;;;;;8.50;6.10;;;;;;;8.77;93.75;99683.95;87160;267;136629;-78
2023/12/20 00:27:40;;;;;;;12.30;6.60;;;;;;;8.84;93.02;99686.05;87231;269;24050;-74
2023/12/20 00:29:43;;;;;;;7.30;6.60;;;;;;;8.86;92.48;99679.47;87321;267;135626;-78
2023/12/20 00:31:44;;;;;;;7.30;6.20;;;;;;;8.88;91.10;99673.98;87572;267;26262;-76
2023/12/20 00:33:49;;;;;;;6.00;5.40;;;;;;;8.87;91.24;99671.55;87303;274;135381;-76
2023/12/20 00:35:51;;;;;;;8.30;5.30;;;;;;;8.91;90.78;99664.96;87439;274;22574;-76
2023/12/20 00:37:53;;;;;;;5.60;5.10;;;;;;;8.92;90.44;99657.29;87230;278;135114;-78
2023/12/20 00:39:55;;;;;;;6.50;5.20;;;;;;;8.94;90.19;99652.27;87336;267;23898;-77
2023/12/20 00:41:57;;;;;;;6.00;5.50;;;;;;;8.92;90.13;99649.95;87334;275;135332;-75
2023/12/20 00:43:59;;;;;;;8.50;7.00;;;;;;;8.91;90.15;99642.34;87413;271;25123;-78
2023/12/20 00:46:03;;;;;;;7.10;6.20;;;;;;;8.91;90.06;99633.69;87308;267;25182;-77
2023/12/20 00:48:05;;;;;;;6.80;6.00;;;;;;;8.87;89.97;99628.66;87158;280;135431;-81
2023/12/20 00:50:10;;;;;;;5.90;5.30;;;;;;;8.83;90.23;99628.69;87405;266;25111;-76
2023/12/20 00:52:12;;;;;;;6.60;5.60;;;;;;;8.80;89.51;99627.98;87236;274;135541;-74
2023/12/20 00:54:14;;;;;;;6.20;5.70;;;;;;;8.80;89.52;99623.91;87198;268;25124;-78
2023/12/20 00:56:16;;;;;;;6.80;5.70;;;;;;;8.81;89.90;99621.46;87295;270;135289;-75
2023/12/20 00:58:20;;;;;;;7.00;5.30;;;;;;;8.82;89.67;99622.02;87230;272;22559;-79
2023/12/20 01:00:23;;;;;;;7.50;5.70;;;;;;;8.82;89.72;99622.30;87201;271;135632;-77
2023/12/20 01:02:25;;;;;;;7.20;5.60;;;;;;;8.79;88.85;99625.59;87713;271;24282;-75
2023/12/20 01:04:27;;;;;;;7.40;5.90;;;;;;;8.82;89.35;99624.88;87069;277;135276;-76
2023/12/20 01:06:36;;;;;;;6.60;5.70;;;;;;;8.85;89.34;99622.54;88494;275;23968;31
2023/12/20 01:11:21;;;;;;;7.70;5.90;;;;;;;8.90;89.47;99612.21;88343;265;885421;-72
2023/12/20 01:13:23;;;;;;;8.40;5.50;;;;;;;8.92;89.21;99614.89;89577;265;135186;-72
2023/12/20 01:15:25;;;;;;;8.40;5.40;;;;;;;8.95;89.26;99610.65;89985;267;22333;-72
2023/12/20 01:17:27;;;;;;;5.90;5.30;;;;;;;9.01;89.37;99611.52;89870;271;135315;-74
2023/12/20 01:19:29;;;;;;;6.20;5.60;;;;;;;9.06;88.55;99608.17;89972;272;22228;-76
2023/12/20 01:21:31;;;;;;;7.30;5.80;;;;;;;9.10;87.90;99608.93;89998;267;135621;-77
2023/12/20 01:23:33;;;;;;;7.50;5.00;;;;;;;9.10;87.71;99602.14;89816;269;22354;-75
2023/12/20 01:25:35;;;;;;;5.60;5.00;;;;;;;9.12;87.62;99603.91;89975;275;135372;-76
2023/12/20 01:27:37;;;;;;;6.50;5.40;;;;;;;9.16;87.54;99602.96;90063;267;22133;-76
2023/12/20 01:29:38;;;;;;;8.20;5.70;;;;;;;9.21;87.41;99605.80;89710;276;134959;-74
2023/12/20 01:31:40;;;;;;;6.80;6.00;;;;;;;9.24;87.50;99598.69;90062;275;22332;-75
2023/12/20 01:33:42;;;;;;;8.40;6.20;;;;;;;9.27;87.15;99600.71;89973;267;136556;-74
2023/12/20 01:35:44;;;;;;;6.90;6.00;;;;;;;9.31;87.04;99597.50;90029;276;22423;-75
2023/12/20 01:37:46;;;;;;;6.40;5.40;;;;;;;9.35;86.65;99598.21;90018;267;136825;-76
2023/12/20 01:39:48;;;;;;;6.90;5.30;;;;;;;9.40;86.70;99593.70;89943;267;22130;-78
2023/12/20 01:41:50;;;;;;;5.10;4.50;;;;;;;9.37;86.66;99585.33;89924;276;136996;-73
2023/12/20 01:43:53;;;;;;;5.60;5.00;;;;;;;9.38;86.81;99580.75;90081;267;22355;-69
2023/12/20 01:45:58;;;;;;;6.40;5.60;;;;;;;9.38;87.40;99577.20;90008;267;135348;-77
2023/12/20 01:48:00;;;;;;;;;;;;;;;9.40;87.30;99573.39;90203;267;23056;-77
2023/12/20 01:50:03;;;;;;;7.90;5.00;;;;;;;9.42;86.51;99568.23;89836;276;121763;-79
2023/12/20 01:52:06;;;;;;;5.50;4.60;;;;;;;9.42;85.98;99567.17;90078;267;136049;-82
2023/12/20 01:54:10;;;;;;;5.70;5.10;;;;;;;9.44;86.23;99563.66;90324;270;22234;-77
2023/12/20 01:56:13;;;;;;;5.70;5.20;;;;;;;9.42;86.03;99565.33;89990;267;137167;-77
2023/12/20 01:58:15;;;;;;;5.90;5.40;;;;;;;9.41;85.80;99562.63;90411;270;22462;-75
2023/12/20 02:00:18;;;;;;;9.10;5.40;;;;;;;9.41;85.78;99561.15;89909;267;136529;-75
2023/12/20 02:02:19;;;;;;;5.30;4.80;;;;;;;9.45;85.54;99554.61;90371;264;22394;-78
2023/12/20 02:04:21;;;;;;;8.00;5.80;;;;;;;9.44;85.04;99552.08;89939;267;136146;-77
2023/12/20 02:06:29;;;;;;;7.10;5.00;;;;;;;9.47;85.11;99549.88;90150;267;22335;-75
2023/12/20 02:08:30;;;;;;;5.70;4.30;;;;;;;9.50;84.90;99542.81;90047;267;135635;-77
2023/12/20 02:10:32;;;;;;;5.70;5.20;;;;;;;9.52;84.53;99528.77;90085;275;22206;-79
2023/12/20 02:12:34;;;;;;;6.60;4.90;;;;;;;9.59;83.95;99529.56;89729;277;136719;-73
2023/12/20 02:14:36;;;;;;;7.30;4.50;;;;;;;9.63;84.10;99536.98;89967;276;22264;-78
2023/12/20 02:16:37;;;;;;;7.70;5.50;;;;;;;9.65;84.28;99534.95;89939;267;136352;-78
2023/12/20 02:18:39;;;;;;;6.50;5.20;;;;;;;9.67;83.56;99531.26;89873;270;22304;-78
2023/12/20 02:20:41;;;;;;;8.60;5.20;;;;;;;9.73;83.42;99532.42;89961;275;136839;-78
2023/12/20 02:22:43;;;;;;;5.20;4.40;;;;;;;9.75;83.19;99528.54;90121;267;22441;-78
2023/12/20 02:24:45;;;;;;;7.70;5.30;;;;;;;9.71;83.24;99530.83;90011;267;136322;-78
2023/12/20 02:26:46;;;;;;;7.80;4.90;;;;;;;9.67;83.61;99526.52;90388;264;23135;-76
2023/12/20 02:28:48;;;;;;;5.20;4.70;;;;;;;9.66;83.58;99533.05;89765;269;136973;-77
2023/12/20 02:30:50;;;;;;;8.00;5.10;;;;;;;9.64;83.74;99526.23;89984;267;22273;-77
2023/12/20 02:32:53;;;;;;;9.30;5.40;;;;;;;9.63;83.60;99527.73;89868;268;135638;-77
2023/12/20 02:34:55;;;;;;;5.70;5.10;;;;;;;9.65;83.32;99528.19;90207;271;23169;-75
2023/12/20 02:36:57;;;;;;;5.90;4.90;;;;;;;9.61;83.40;99522.86;90531;263;136244;-72
2023/12/20 02:38:58;;;;;;;9.60;5.30;;;;;;;9.61;83.54;99528.87;90602;264;22420;-79
2023/12/20 02:41:00;;;;;;;5.30;4.80;;;;;;;9.62;83.41;99531.52;90067;271;135809;-77
2023/12/20 02:43:02;;;;;;;6.70;4.80;;;;;;;9.64;83.32;99525.48;90064;264;22263;-76
2023/12/20 02:45:05;;;;;;;10.00;4.40;;;;;;;9.66;83.46;99522.21;89786;267;137192;-71
2023/12/20 02:47:07;;;;;;;5.10;4.60;;;;;;;9.65;83.26;99528.36;90371;264;23093;-77
2023/12/20 02:49:08;;;;;;;5.80;4.80;;;;;;;9.66;83.34;99524.95;89923;275;136101;-78
2023/12/20 02:51:10;;;;;;;9.80;5.60;;;;;;;9.63;83.56;99522.41;89972;267;22347;-77
2023/12/20 02:53:12;;;;;;;5.70;5.20;;;;;;;9.56;83.62;99513.60;89910;267;137615;-78
2023/12/20 02:55:14;;;;;;;5.90;5.30;;;;;;;9.58;83.46;99508.40;90258;271;22271;-73
2023/12/20 02:57:16;;;;;;;6.30;5.70;;;;;;;9.58;83.51;99507.76;89962;267;137095;-73
2023/12/20 02:59:18;;;;;;;6.10;5.50;;;;;;;9.53;83.67;99509.70;90068;275;23141;-75
2023/12/20 03:01:19;;;;;;;6.40;5.20;;;;;;;9.53;83.64;99501.78;90129;263;136436;-73
2023/12/20 03:03:21;;;;;;;6.60;6.00;;;;;;;9.49;83.99;99501.11;89834;267;23212;-75
2023/12/20 03:05:23;;;;;;;6.50;5.70;;;;;;;9.44;83.50;99498.52;90045;271;137350;-74
2023/12/20 03:07:25;;;;;;;9.00;5.60;;;;;;;9.43;83.33;99489.59;90127;274;22428;-75
2023/12/20 03:09:27;;;;;;;8.20;5.90;;;;;;;9.42;82.95;99488.73;89964;267;137514;-77
2023/12/20 03:11:31;;;;;;;11.70;5.00;;;;;;;9.35;83.52;99496.29;89927;269;22264;-76
2023/12/20 03:13:33;;;;;;;8.00;5.60;;;;;;;9.33;84.29;99499.27;89837;275;135861;-75
2023/12/20 03:15:35;;;;;;;10.20;5.80;;;;;;;9.26;84.70;99493.73;90017;275;22127;-75
2023/12/20 03:17:37;;;;;;;9.30;6.10;;;;;;;9.23;84.57;99496.61;89978;275;136198;-76
2023/12/20 03:19:39;;;;;;;5.60;4.40;;;;;;;9.22;84.56;99494.54;90017;275;22394;-76
2023/12/20 03:21:41;;;;;;;6.20;5.20;;;;;;;9.22;84.67;99485.73;90086;270;135778;-77
2023/12/20 03:23:44;;;;;;;6.10;5.00;;;;;;;9.22;84.60;99491.17;90127;267;22219;-78
2023/12/20 03:25:45;;;;;;;6.70;5.40;;;;;;;9.15;84.70;99495.45;89936;263;135568;-77
2023/12/20 03:27:47;;;;;;;8.50;5.70;;;;;;;9.15;84.54;99487.85;90028;275;22345;-76
2023/12/20 03:29:50;;;;;;;7.80;5.80;;;;;;;9.14;84.98;99491.19;89882;269;137780;-74
2023/12/20 03:31:51;;;;;;;7.00;5.80;;;;;;;9.12;85.31;99487.91;90064;267;22243;-78
2023/12/20 03:33:53;;;;;;;6.40;5.40;;;;;;;9.09;85.24;99485.11;89942;275;135332;-78
2023/12/20 03:35:56;;;;;;;9.10;6.10;;;;;;;9.10;85.55;99490.20;89853;269;22235;-74
2023/12/20 03:37:59;;;;;;;7.40;6.10;;;;;;;9.07;85.41;99497.46;89918;267;135839;-76
2023/12/20 03:40:01;;;;;;;7.00;5.20;;;;;;;9.05;85.11;99494.84;90047;267;22458;-78
2023/12/20 03:42:04;;;;;;;7.80;5.50;;;;;;;9.05;85.00;99503.27;89933;275;22339;-78
2023/12/20 03:44:05;;;;;;;11.00;5.90;;;;;;;9.00;85.37;99503.45;89891;267;137558;-78
2023/12/20 03:46:10;;;;;;;7.20;5.90;;;;;;;9.01;85.22;99506.20;90034;267;22361;-77
2023/12/20 03:48:11;;;;;;;7.60;5.80;;;;;;;9.04;85.30;99501.42;89853;267;137596;-76
2023/12/20 03:50:14;;;;;;;6.30;5.60;;;;;;;9.06;85.29;99502.23;90393;270;22980;-78
2023/12/20 03:52:15;;;;;;;5.80;5.20;;;;;;;9.07;85.37;99502.73;89982;267;135849;-79
2023/12/20 03:54:17;;;;;;;7.20;5.70;;;;;;;9.11;85.10;99499.44;89908;276;23272;-74
2023/12/20 03:56:19;;;;;;;6.70;5.70;;;;;;;9.12;85.01;99495.44;89934;267;135703;-77
2023/12/20 03:58:21;;;;;;;6.70;5.90;;;;;;;9.07;85.48;99503.61;90087;265;22344;-77
2023/12/20 04:00:22;;;;;;;8.20;5.80;;;;;;;9.06;85.56;99499.36;90006;268;136164;-79
2023/12/20 04:02:24;;;;;;;8.50;5.90;;;;;;;9.09;85.49;99500.50;90357;271;22333;-79
2023/12/20 04:04:26;;;;;;;6.70;6.00;;;;;;;9.15;85.22;99496.76;90052;267;136639;-78
2023/12/20 04:06:28;;;;;;;7.90;6.30;;;;;;;9.14;85.34;99500.94;90009;267;22127;-79
2023/12/20 04:08:29;;;;;;;7.80;5.60;;;;;;;9.12;85.60;99495.27;89831;269;136573;-78
2023/12/20 04:10:31;;;;;;;6.50;5.80;;;;;;;9.08;85.70;99496.13;89956;268;22315;-78
2023/12/20 04:12:33;;;;;;;8.90;6.30;;;;;;;9.01;85.79;99498.63;89999;267;136858;-79
2023/12/20 04:14:35;;;;;;;6.80;6.20;;;;;;;8.95;85.83;99498.52;90372;263;22502;-78
2023/12/20 04:16:37;;;;;;;7.10;6.30;;;;;;;8.91;86.23;99498.43;89973;275;136946;-73
2023/12/20 04:18:39;;;;;;;10.30;7.10;;;;;;;8.90;86.33;99497.92;90126;267;22220;-79
2023/12/20 04:20:40;;;;;;;7.50;6.30;;;;;;;8.86;86.46;99494.88;90103;267;135873;-79
2023/12/20 04:22:42;;;;;;;13.10;7.60;;;;;;;8.77;86.88;99491.73;90098;267;22371;-77
2023/12/20 04:24:44;;;;;;;9.30;5.90;;;;;;;8.72;86.89;99500.67;90018;274;136750;-78
2023/12/20 04:26:46;;;;;;;9.70;5.70;;;;;;;8.71;86.94;99504.59;90076;268;22822;-80
2023/12/20 04:28:48;;;;;;;10.60;6.20;;;;;;;8.67;86.81;99514.78;89999;275;136654;-80
2023/12/20 04:30:53;;;;;;;8.00;6.40;;;;;;;8.62;86.50;99516.35;90056;267;22961;-79
2023/12/20 04:32:55;;;;;;;7.30;6.20;;;;;;;8.57;86.85;99513.46;89946;267;135640;-78
2023/12/20 04:34:57;;;;;;;7.60;6.50;;;;;;;8.57;86.74;99516.48;90068;264;22178;-77
2023/12/20 04:36:59;;;;;;;7.60;6.70;;;;;;;8.57;86.61;99512.02;89925;267;136488;-75
2023/12/20 04:39:00;;;;;;;11.60;7.40;;;;;;;8.55;87.16;99511.20;90358;280;22621;-77
2023/12/20 04:41:03;;;;;;;9.90;7.10;;;;;;;8.53;87.31;99507.43;90323;271;135786;-78
2023/12/20 04:43:04;;;;;;;9.30;7.10;;;;;;;8.49;87.23;99508.80;89934;265;22153;-79
2023/12/20 04:45:06;;;;;;;9.30;6.20;;;;;;;8.51;86.91;99511.67;90152;267;135471;-78
2023/12/20 04:47:08;;;;;;;10.30;6.40;;;;;;;8.52;86.83;99508.94;90150;267;22268;-79
2023/12/20 04:49:10;;;;;;;8.20;6.90;;;;;;;8.47;87.09;99508.54;90047;271;136180;-80
2023/12/20 04:51:12;;;;;;;7.50;5.90;;;;;;;8.43;87.16;99505.72;90396;271;22418;-78
2023/12/20 04:53:13;;;;;;;9.10;6.40;;;;;;;8.38;87.57;99502.44;90193;274;135700;-78
2023/12/20 04:55:15;;;;;;;6.40;5.70;;;;;;;8.38;87.57;99502.36;90302;265;22276;-79
2023/12/20 04:57:18;;;;;;;10.10;6.40;;;;;;;8.36;87.68;99498.63;90049;267;136762;-79
2023/12/20 04:59:19;;;;;;;10.10;5.90;;;;;;;8.36;88.00;99499.41;89984;275;22411;-76
2023/12/20 05:01:21;;;;;;;8.40;6.60;;;;;;;8.33;88.24;99497.52;89863;271;135712;-71
2023/12/20 05:03:23;;;;;;;9.50;6.20;;;;;;;8.35;88.42;99499.16;89886;271;22959;-78
2023/12/20 05:05:24;;;;;;;7.10;6.00;;;;;;;8.34;88.17;99505.68;89942;267;135702;-72
2023/12/20 05:07:26;;;;;;;9.20;7.00;;;;;;;8.36;88.17;99510.23;90181;264;22354;-78
2023/12/20 05:09:28;;;;;;;7.80;6.70;;;;;;;8.39;88.10;99515.85;89926;271;135535;-77
2023/12/20 05:11:30;;;;;;;8.40;6.40;;;;;;;8.40;88.22;99519.66;89971;267;22973;-78
2023/12/20 05:13:32;;;;;;;7.90;6.60;;;;;;;8.34;88.34;99517.49;89991;271;135652;-75
2023/12/20 05:15:45;;;;;;;8.00;6.60;;;;;;;8.32;88.45;99514.13;90169;269;22422;-73
2023/12/20 05:17:47;;;;;;;8.70;6.50;;;;;;;8.29;88.36;99504.18;89891;274;137157;-73
2023/12/20 05:19:49;;;;;;;9.00;7.10;;;;;;;8.24;88.74;99502.59;89978;267;22822;-76
2023/12/20 05:21:51;;;;;;;10.60;6.60;;;;;;;8.22;88.89;99505.14;89915;271;135737;-71
2023/12/20 05:23:52;;;;;;;9.50;7.50;;;;;;;8.18;89.34;99508.18;90194;270;22333;-79
2023/12/20 05:25:54;;;;;;;8.40;6.80;;;;;;;8.17;89.60;99507.84;89984;267;136693;-71
2023/12/20 05:27:56;;;;;;;10.60;6.60;;;;;;;8.16;89.58;99500.38;90050;276;22251;-81
2023/12/20 05:29:58;;;;;;;10.00;6.90;;;;;;;8.05;89.45;99494.77;89857;268;136636;-82
2023/12/20 05:31:59;;;;;;;10.00;6.30;;;;;;;8.10;89.87;99502.81;90035;267;22327;-75
2023/12/20 05:34:01;;;;;;;11.40;7.00;;;;;;;8.12;89.97;99502.84;89959;275;135527;-82
2023/12/20 05:36:03;;;;;;;10.30;6.70;;;;;;;8.09;89.95;99505.99;90159;275;135865;-81
2023/12/20 05:38:05;;;;;;;11.20;7.80;;;;;;;8.07;90.02;99509.04;90156;265;22193;-83
2023/12/20 05:40:10;;;;;;;14.90;7.90;;;;;;;8.06;89.71;99509.08;90002;267;136671;-81
2023/12/20 05:42:11;;;;;;;9.20;7.10;;;;;;;8.07;89.55;99501.64;89830;268;22344;-80
2023/12/20 05:44:13;;;;;;;8.90;6.90;;;;;;;8.05;89.78;99500.36;90036;263;137173;-79
2023/12/20 05:46:15;;;;;;;10.00;7.80;;;;;;;8.02;90.23;99499.29;90055;263;23053;-71
2023/12/20 05:48:17;;;;;;;11.20;7.70;;;;;;;8.02;90.06;99501.73;89902;263;136843;-71
2023/12/20 05:50:18;;;;;;;13.00;7.70;;;;;;;8.03;90.16;99499.57;89863;276;22357;-70
2023/12/20 05:52:21;;;;;;;10.40;7.10;;;;;;;8.06;89.64;99502.66;89964;267;135900;-70
2023/12/20 05:54:23;;;;;;;8.60;7.50;;;;;;;8.06;89.80;99506.98;89930;275;22418;-69
2023/12/20 05:56:25;;;;;;;10.40;7.10;;;;;;;8.06;89.76;99508.38;89920;267;135386;-71
2023/12/20 05:58:27;;;;;;;8.20;6.90;;;;;;;8.03;89.77;99510.45;90038;267;22346;-71
2023/12/20 06:00:28;;;;;;;9.60;6.20;;;;;;;8.04;89.73;99512.08;89957;271;137093;-71
2023/12/20 06:02:30;;;;;;;10.50;7.10;;;;;;;8.02;89.53;99512.15;89732;276;22443;-71
2023/12/20 06:04:32;;;;;;;11.30;6.80;;;;;;;8.00;89.69;99512.81;90122;270;136701;-71
2023/12/20 06:06:34;;;;;;;11.20;7.10;;;;;;;8.05;89.65;99505.10;90265;270;22382;-70
2023/12/20 06:08:36;;;;;;;10.50;7.10;;;;;;;8.07;89.57;99507.53;89887;267;135600;-72
2023/12/20 06:10:38;;;;;;;7.40;6.10;;;;;;;8.14;89.43;99508.43;89910;275;22806;-69
2023/12/20 06:12:39;;;;;;;10.80;7.00;;;;;;;8.16;88.88;99510.98;89894;267;136734;-73
2023/12/20 06:14:41;;;;;;;9.30;7.30;;;;;;;8.14;88.74;99514.93;90274;270;22337;-72
2023/12/20 06:16:43;;;;;;;9.10;6.80;;;;;;;8.16;88.56;99516.95;89938;266;137189;-72
2023/12/20 06:18:45;;;;;;;8.90;7.00;;;;;;;8.22;87.93;99515.36;90052;270;22583;-72
2023/12/20 06:20:46;;;;;;;11.20;7.00;;;;;;;8.19;87.89;99505.09;90132;270;135560;-71
2023/12/20 06:22:48;;;;;;;7.40;6.70;;;;;;;8.26;87.72;99510.04;90294;266;22426;-72
2023/12/20 06:24:50;;;;;;;8.90;7.40;;;;;;;8.30;87.60;99516.93;89720;268;137062;-72
2023/12/20 06:26:51;;;;;;;11.50;7.60;;;;;;;8.26;87.96;99512.36;90042;266;22380;-71
2023/12/20 06:28:54;;;;;;;9.70;7.70;;;;;;;8.23;88.06;99508.18;90079;270;136581;-71
2023/12/20 06:30:56;;;;;;;10.60;7.30;;;;;;;8.24;88.37;99509.94;90015;267;23397;-73
2023/12/20 06:32:58;;;;;;;10.60;8.50;;;;;;;8.27;87.94;99504.13;89900;275;136971;-74
2023/12/20 06:35:01;;;;;;;13.50;7.90;;;;;;;8.31;88.09;99503.73;90044;271;22650;-71
2023/12/20 06:37:02;;;;;;;8.90;6.30;;;;;;;8.43;88.13;99502.26;89731;269;135895;-72
2023/12/20 06:39:04;;;;;;;9.50;7.20;;;;;;;8.52;87.97;99506.06;90055;274;22345;-72
2023/12/20 06:41:06;;;;;;;6.90;6.20;;;;;;;8.61;87.47;99505.14;90053;271;136472;-71
2023/12/20 06:43:08;;;;;;;9.20;7.00;;;;;;;8.69;87.38;99508.63;90042;275;22419;-72
2023/12/20 06:45:21;;;;;;;8.60;6.90;;;;;;;8.80;87.54;99499.61;89845;267;135507;-73
2023/12/20 06:47:23;;;;;;;9.20;6.80;;;;;;;8.78;87.78;99484.95;89715;268;22367;-72
2023/12/20 06:49:25;;;;;;;9.00;7.00;;;;;;;8.94;87.69;99498.80;89844;271;135511;-72
2023/12/20 06:51:27;;;;;;;10.80;6.50;;;;;;;9.00;87.42;99499.56;90327;271;22393;-72
2023/12/20 06:53:29;;;;;;;10.80;8.20;;;;;;;9.07;87.33;99501.73;89561;264;462629;-72
2023/12/20 06:55:31;;;;;;;8.00;6.40;;;;;;;9.17;86.51;99500.04;90044;274;23124;-72
2023/12/20 06:57:33;;;;;;;8.40;7.20;;;;;;;9.19;86.18;99503.23;89956;270;136392;-72
2023/12/20 06:59:41;;;;;;;7.50;6.70;;;;;;;9.20;86.20;99507.94;90309;270;22534;-72
2023/12/20 07:01:47;;;;;;;8.70;6.80;;;;;;;9.20;86.46;99505.40;89956;270;135623;-73
2023/12/20 07:03:49;;;;;;;8.70;7.40;;;;;;;9.21;85.55;99506.92;90086;262;23023;-75
2023/12/20 07:05:51;;;;;;;11.60;7.50;;;;;;;9.21;85.00;99512.08;89960;275;135959;-72
2023/12/20 07:07:52;;;;;;;9.70;7.80;;;;;;;9.17;84.76;99519.70;90247;263;23078;-71
2023/12/20 07:09:54;;;;;;;12.20;7.50;;;;;;;9.20;84.77;99520.78;89662;272;135772;-71
2023/12/20 07:11:56;;;;;;;10.30;7.90;;;;;;;9.21;84.75;99517.34;90078;274;22422;-73
2023/12/20 07:13:58;;;;;;;12.10;7.40;;;;;;;9.19;84.76;99506.89;89936;266;136617;-74
2023/12/20 07:15:59;;;;;;;11.80;8.80;;;;;;;9.28;84.47;99515.45;90025;274;22412;-70
2023/12/20 07:18:01;;;;;;;11.50;8.50;;;;;;;9.28;84.70;99511.20;89970;266;135557;-71
2023/12/20 07:20:03;;;;;;;11.20;8.60;;;;;;;9.23;85.06;99515.94;89817;264;136522;-71
2023/12/20 07:22:06;;;;;;;13.80;9.40;;;;;;;9.19;85.32;99517.42;89921;267;22309;-73
2023/12/20 07:24:08;;;;;;;12.90;9.30;;;;;;;9.20;85.49;99515.30;90217;271;137030;-74
2023/12/20 07:26:11;;;;;;;11.90;9.10;;;;;;;9.22;85.66;99516.25;90076;275;22297;-71
2023/12/20 07:28:13;;;;;;;11.10;9.30;;;;;;;9.25;86.05;99511.84;90165;263;135979;-74
2023/12/20 07:30:15;;;;;;;12.30;9.40;;;;;;;9.27;85.86;99510.95;90276;270;22339;-73
2023/12/20 07:32:17;;;;;;;12.50;9.50;;;;;;;9.30;85.51;99512.64;90154;264;135892;-72
2023/12/20 07:34:19;;;;;;;12.60;8.30;;;;;;;9.34;85.60;99514.48;90064;267;23119;-71
2023/12/20 07:36:21;;;;;;;9.70;8.10;;;;;;;9.43;85.48;99513.00;89908;267;136106;-74
2023/12/20 07:38:23;;;;;;;10.70;8.70;;;;;;;9.50;85.19;99503.73;90039;266;22413;-72
2023/12/20 07:40:24;;;;;;;11.70;9.40;;;;;;;9.58;85.08;99494.45;90081;263;136074;-72
2023/12/20 07:42:26;;;;;;;11.80;10.40;;;;;;;9.68;85.11;99487.95;89946;268;23090;-73
2023/12/20 07:44:28;;;;;;;13.10;10.50;;;;;;;9.81;85.15;99484.61;89892;267;136086;-73
2023/12/20 07:46:30;;;;;;;12.50;10.20;;;;;;;9.98;84.87;99483.06;89662;265;23207;-74
2023/12/20 07:48:32;;;;;;;11.20;9.10;;;;;;;10.09;84.03;99480.88;89657;269;136171;-75
2023/12/20 07:50:34;;;;;;;8.70;7.60;;;;;;;10.16;83.88;99479.89;90022;265;22458;-74
2023/12/20 07:52:36;;;;;;;11.70;7.60;;;;;;;10.17;84.15;99484.77;89644;270;136565;-74
2023/12/20 07:54:38;;;;;;;12.90;8.50;;;;;;;10.15;84.32;99480.17;90045;267;22141;-76
2023/12/20 07:56:40;;;;;;;12.40;8.30;;;;;;;10.17;84.48;99481.61;89736;266;136190;-74
2023/12/20 07:58:42;;;;;;;12.00;8.50;;;;;;;10.16;84.71;99477.42;90254;266;22373;-74
2023/12/20 08:00:53;;;;;;;10.90;8.80;;;;;;;10.17;85.00;99477.55;89926;266;137606;-74
2023/12/20 08:02:55;;;;;;;11.70;8.30;;;;;;;10.22;84.78;99471.52;90068;266;22424;-74
2023/12/20 08:04:57;;;;;;;11.60;9.10;;;;;;;10.25;84.86;99468.03;89996;266;137484;-74
2023/12/20 08:07:00;;;;;;;10.00;8.20;;;;;;;10.29;84.86;99474.97;90074;266;22340;-76
2023/12/20 08:09:02;;;;;;;10.60;7.60;;;;;;;10.28;85.39;99476.86;89831;268;136072;-74
2023/12/20 08:11:07;;;;;;;15.50;8.90;;;;;;;10.34;85.00;99483.00;90018;274;23260;-74
2023/12/20 08:13:13;;;;;;;9.50;7.80;;;;;;;10.32;85.04;99486.13;90222;270;138036;-73
2023/12/20 08:15:15;;;;;;;11.20;8.10;;;;;;;10.35;85.27;99490.42;90208;264;22438;-74
2023/12/20 08:17:18;;;;;;;11.00;8.80;;;;;;;10.33;85.51;99484.89;89974;264;135597;-74
2023/12/20 08:19:20;;;;;;;9.50;7.40;;;;;;;10.38;85.78;99477.51;90069;274;22392;-76
2023/12/20 08:21:22;;;;;;;11.30;8.20;;;;;;;10.47;86.57;99474.96;89949;274;136852;-76
2023/12/20 08:23:24;;;;;;;15.30;8.30;;;;;;;10.57;86.82;99474.14;90040;274;22317;-75
2023/12/20 08:25:28;;;;;;;10.90;8.40;;;;;;;10.67;86.59;99466.11;89911;266;137651;-73
2023/12/20 08:27:31;;;;;;;12.90;8.60;;;;;;;10.77;86.87;99454.11;90056;266;22420;-73
2023/12/20 08:29:33;;;;;;;19.10;12.30;;;;;;;10.92;86.75;99445.52;89728;268;137300;-72
2023/12/20 08:31:35;;;;;;;13.20;9.80;;;;;;;11.06;87.32;99439.61;90039;271;22298;-75
2023/12/20 08:33:36;;;;;;;11.90;8.50;;;;;;;11.16;87.02;99439.12;89952;267;136033;-74
2023/12/20 08:35:39;;;;;;;12.10;8.00;;;;;;;11.23;86.51;99442.93;90062;271;22470;-72
2023/12/20 08:37:41;;;;;;;15.60;10.20;;;;;;;11.27;86.46;99444.92;90004;271;137450;-73
2023/12/20 08:39:43;;;;;;;10.30;8.30;;;;;;;11.32;86.58;99442.64;89770;269;22299;-73
2023/12/20 08:41:46;;;;;;;13.10;8.00;;;;;;;11.41;87.05;99432.77;89805;275;136119;-74
2023/12/20 08:43:48;;;;;;;15.80;9.60;;;;;;;11.47;86.87;99422.71;90081;275;22350;-74
2023/12/20 08:45:50;;;;;;;10.70;7.60;;;;;;;11.49;85.63;99425.56;89972;267;138465;-75
2023/12/20 08:47:52;;;;;;;13.50;7.80;;;;;;;11.49;85.92;99422.36;90033;267;22360;-75
2023/12/20 08:49:56;;;;;;;11.60;7.50;;;;;;;11.50;85.40;99423.82;90113;263;136662;-77
2023/12/20 08:51:58;;;;;;;10.00;7.30;;;;;;;11.49;85.23;99428.40;90259;263;22323;-76
2023/12/20 08:54:00;;;;;;;8.10;6.70;;;;;;;11.48;84.33;99431.88;89944;267;137077;-71
2023/12/20 08:56:02;;;;;;;10.50;7.50;;;;;;;11.48;84.83;99427.83;90188;263;22234;-72
2023/12/20 08:58:03;;;;;;;9.10;7.50;;;;;;;11.40;84.59;99415.36;89898;268;22345;-75
2023/12/20 09:00:07;;;;;;;10.60;6.40;;;;;;;11.48;84.52;99427.08;89952;267;136170;-72
2023/12/20 09:02:09;;;;;;;7.30;6.60;;;;;;;11.56;84.35;99422.18;90227;263;22870;-75
2023/12/20 09:04:11;;;;;;;7.10;6.30;;;;;;;11.58;84.38;99417.35;90140;262;136173;-73
2023/12/20 09:06:13;;;;;;;8.90;6.60;;;;;;;11.54;83.60;99421.01;89900;276;23157;-74
2023/12/20 09:08:15;;;;;;;11.80;7.20;;;;;;;11.51;82.99;99423.05;89924;267;136089;-74
2023/12/20 09:10:21;;;;;;;10.00;6.80;;;;;;;11.44;82.75;99420.34;90032;274;22342;-73
2023/12/20 09:12:24;;;;;;;7.80;6.70;;;;;;;11.34;82.53;99417.41;89773;266;137281;-74
2023/12/20 09:14:26;;;;;;;10.90;7.60;;;;;;;11.29;82.48;99424.50;90067;267;22327;-74
2023/12/20 09:16:27;;;;;;;8.30;7.10;;;;;;;11.21;82.60;99425.58;90153;263;136170;-74
2023/12/20 09:18:31;;;;;;;11.50;6.10;;;;;;;11.16;82.99;99426.39;90039;274;22407;-75
2023/12/20 09:20:33;;;;;;;15.80;7.00;;;;;;;11.06;82.55;99408.16;89935;267;136014;-76
2023/12/20 09:22:35;;;;;;;10.00;7.20;;;;;;;11.06;81.79;99417.23;90232;271;22370;-75
2023/12/20 09:24:41;;;;;;;12.30;6.70;;;;;;;11.03;81.53;99416.38;89866;267;136240;-73
2023/12/20 09:26:44;;;;;;;11.70;7.70;;;;;;;11.00;80.55;99411.05;89991;275;22267;-76
2023/12/20 09:28:45;;;;;;;11.70;6.60;;;;;;;11.00;78.71;99414.13;89930;267;136873;-75
2023/12/20 09:30:47;;;;;;;7.60;6.90;;;;;;;10.99;77.51;99408.81;89890;275;22811;-75
2023/12/20 09:32:49;;;;;;;10.50;7.20;;;;;;;10.97;77.28;99403.16;89935;271;136893;-75
2023/12/20 09:34:51;;;;;;;8.60;6.80;;;;;;;10.97;76.42;99397.53;89833;268;22421;-74
2023/12/20 09:36:53;;;;;;;9.80;6.30;;;;;;;10.86;76.53;99382.38;90098;263;135900;-73
2023/12/20 09:38:55;;;;;;;10.10;6.20;;;;;;;10.86;76.76;99399.15;89877;265;23069;-75
2023/12/20 09:40:57;;;;;;;9.50;6.10;;;;;;;10.85;76.43;99404.11;89665;276;139126;-74
2023/12/20 09:43:10;;;;;;;7.00;5.80;;;;;;;10.87;76.02;99404.35;90057;275;22395;-75
2023/12/20 09:45:14;;;;;;;7.90;6.90;;;;;;;10.91;76.39;99398.67;89997;264;136461;-73